Time;durP1;ratioP1;P1;durP2;ratioP2;P2;SDS_P1;SDS_P2;PMS_P1;PMS_P2;Temp;Humidity;BMP_temperature;BMP_pressure;BME280_temperature;BME280_humidity;BME280_pressure;Samples;Min_cycle;Max_cycle;Signal;HPM_P1;HPM_P2
2023/01/08 00:00:50;;;;;;;;;;;9.40;99.90;;;;;;5022887;28;19956;-74
2023/01/08 00:03:15;;;;;;;;;;;9.40;99.90;;;;;;5023771;28;19975;-74
2023/01/08 00:05:41;;;;;;;;;;;9.40;99.90;;;;;;5031480;28;19925;-74
2023/01/08 00:08:07;;;;;;;;;;;9.40;99.90;;;;;;5005262;28;19921;-74
2023/01/08 00:10:36;;;;;;;;;;;9.40;99.90;;;;;;5005647;28;19921;-74
2023/01/08 00:13:02;;;;;;;;;;;9.50;99.90;;;;;;5021443;28;19921;-74
2023/01/08 00:15:29;;;;;;;;;;;9.40;99.90;;;;;;5022982;28;19928;-74
2023/01/08 00:17:55;;;;;;;;;;;9.40;99.90;;;;;;5008249;28;20089;-74
2023/01/08 00:20:20;;;;;;;;;;;9.40;99.90;;;;;;5008835;28;20008;-74
2023/01/08 00:22:50;;;;;;;;;;;9.40;99.90;;;;;;4991732;28;20383;-75
2023/01/08 00:25:16;;;;;;;;;;;9.40;99.90;;;;;;5023887;28;20325;-74
2023/01/08 00:27:41;;;;;;;;;;;9.40;99.90;;;;;;5033170;28;19922;-74
2023/01/08 00:30:08;;;;;;;;;;;9.40;99.90;;;;;;5024231;28;20400;-74
2023/01/08 00:32:33;;;;;;;;;;;9.40;99.90;;;;;;5037108;28;20310;-74
2023/01/08 00:35:00;;;;;;;;;;;9.40;99.90;;;;;;5023749;28;19928;-74
2023/01/08 00:37:26;;;;;;;;;;;9.40;99.90;;;;;;5022407;28;20341;-74
2023/01/08 00:39:52;;;;;;;;;;;9.40;99.90;;;;;;5036506;28;19936;-74
2023/01/08 00:42:17;;;;;;;;;;;9.40;99.90;;;;;;5021265;28;19929;-75
2023/01/08 00:44:43;;;;;;;;;;;9.40;99.90;;;;;;5022985;28;19929;-74
2023/01/08 00:47:09;;;;;;;;;;;9.40;99.90;;;;;;4988837;28;19926;-74
2023/01/08 00:49:34;;;;;;;;;;;9.40;99.90;;;;;;5034309;28;19928;-74
2023/01/08 00:52:00;;;;;;;;;;;9.40;99.90;;;;;;5006528;28;19925;-74
2023/01/08 00:54:26;;;;;;;;;;;9.40;99.90;;;;;;5033031;28;19925;-75
2023/01/08 00:56:53;;;;;;;;;;;9.40;99.90;;;;;;5035565;28;19948;-75
2023/01/08 00:59:19;;;;;;;;;;;9.40;99.90;;;;;;5007522;28;19921;-74
2023/01/08 01:01:45;;;;;;;;;;;9.40;99.90;;;;;;5006731;28;19952;-74
2023/01/08 01:04:10;;;;;;;;;;;9.40;99.90;;;;;;5023234;28;20390;-74
2023/01/08 01:06:36;;;;;;;;;;;9.40;99.90;;;;;;5034046;28;20020;-74
2023/01/08 01:09:02;;;;;;;;;;;9.40;99.90;;;;;;5040254;28;19921;-74
2023/01/08 01:11:27;;;;;;;;;;;9.40;99.90;;;;;;5026508;28;20248;-74
2023/01/08 01:13:54;;;;;;;;;;;9.40;99.90;;;;;;5009752;28;20775;-74
2023/01/08 01:16:20;;;;;;;;;;;9.40;99.90;;;;;;5009213;28;20429;-74
2023/01/08 01:18:46;;;;;;;;;;;9.40;99.90;;;;;;5037661;28;19921;-74
2023/01/08 01:21:12;;;;;;;;;;;9.40;99.90;;;;;;5035468;28;19939;-74
2023/01/08 01:23:38;;;;;;;;;;;9.40;99.90;;;;;;5024526;28;20026;-74
2023/01/08 01:26:12;;;;;;;;;;;9.30;99.90;;;;;;5027195;28;20016;-74
2023/01/08 01:28:38;;;;;;;;;;;9.30;99.90;;;;;;5009991;28;20055;-74
2023/01/08 01:31:05;;;;;;;;;;;9.30;99.90;;;;;;5027003;28;20020;-74
2023/01/08 01:33:31;;;;;;;;;;;9.30;99.90;;;;;;5024877;28;19921;-74
2023/01/08 01:36:00;;;;;;;;;;;9.20;99.90;;;;;;5021012;28;19933;-74
2023/01/08 01:38:26;;;;;;;;;;;9.20;99.90;;;;;;5026844;28;19932;-75
2023/01/08 01:40:52;;;;;;;;;;;9.10;99.90;;;;;;5010404;28;20081;-77
2023/01/08 01:43:35;;;;;;;;;;;8.80;99.90;;;;;;5019669;28;20302;-75
2023/01/08 01:46:03;;;;;;;;;;;8.60;99.90;;;;;;5008881;28;19921;-75
2023/01/08 01:48:29;;;;;;;;;;;8.40;99.90;;;;;;4995338;28;20290;-75
2023/01/08 01:50:58;;;;;;;;;;;8.40;99.90;;;;;;5028185;28;19932;-76
2023/01/08 01:53:26;;;;;;;;;;;8.30;99.90;;;;;;5010028;28;19925;-75
2023/01/08 01:55:52;;;;;;;;;;;8.30;99.90;;;;;;5009990;28;20464;-75
2023/01/08 01:58:22;;;;;;;;;;;8.20;99.90;;;;;;5011391;28;19929;-75
2023/01/08 02:00:57;;;;;;;;;;;8.20;99.90;;;;;;5026208;28;19979;-75
2023/01/08 02:03:24;;;;;;;;;;;8.10;99.90;;;;;;5009436;28;19933;-77
2023/01/08 02:06:21;;;;;;;;;;;8.10;99.90;;;;;;5022587;28;20358;-77
2023/01/08 02:09:10;;;;;;;;;;;8.00;99.90;;;;;;5010605;28;19940;-76
2023/01/08 02:11:38;;;;;;;;;;;8.00;99.90;;;;;;5009872;28;19921;-76
2023/01/08 02:14:28;;;;;;;;;;;7.90;99.90;;;;;;5011288;28;19948;-76
2023/01/08 02:16:54;;;;;;;;;;;7.90;99.90;;;;;;5018992;28;19932;-75
2023/01/08 02:19:33;;;;;;;;;;;7.90;99.90;;;;;;5024975;28;19921;-75
2023/01/08 02:22:23;;;;;;;;;;;7.90;99.90;;;;;;5026112;28;19999;-75
2023/01/08 02:25:01;;;;;;;;;;;7.90;99.90;;;;;;5023547;28;20545;-75
2023/01/08 02:27:28;;;;;;;;;;;7.80;99.90;;;;;;5024340;28;19929;-74
2023/01/08 02:29:55;;;;;;;;;;;7.90;99.90;;;;;;5035243;28;19921;-74
2023/01/08 02:32:27;;;;;;;;;;;7.80;99.90;;;;;;5038574;28;19980;-74
2023/01/08 02:34:54;;;;;;;;;;;7.80;99.90;;;;;;5024616;28;19991;-74
2023/01/08 02:37:19;;;;;;;;;;;7.80;99.90;;;;;;5045669;28;19996;-74
2023/01/08 02:39:45;;;;;;;;;;;7.80;99.90;;;;;;5044015;28;19972;-74
2023/01/08 02:42:20;;;;;;;;;;;7.80;99.90;;;;;;5017510;28;19933;-74
2023/01/08 02:44:58;;;;;;;;;;;7.70;99.90;;;;;;5027515;28;19996;-74
2023/01/08 02:47:56;;;;;;;;;;;7.70;99.90;;;;;;5038474;28;19928;-74
2023/01/08 02:50:32;;;;;;;;;;;7.70;99.90;;;;;;4982889;28;19921;-74
2023/01/08 02:53:01;;;;;;;;;;;7.70;99.90;;;;;;5025319;28;20349;-74
2023/01/08 02:55:29;;;;;;;;;;;7.70;99.90;;;;;;5025273;28;19921;-75
2023/01/08 02:57:56;;;;;;;;;;;7.70;99.90;;;;;;5024807;28;20023;-74
2023/01/08 03:00:21;;;;;;;;;;;7.70;99.90;;;;;;5035529;28;19925;-75
2023/01/08 03:02:50;;;;;;;;;;;7.70;99.90;;;;;;5023634;28;19928;-74
2023/01/08 03:05:22;;;;;;;;;;;7.70;99.90;;;;;;5007283;28;19921;-74
2023/01/08 03:07:48;;;;;;;;;;;7.70;99.90;;;;;;5024350;28;19921;-74
2023/01/08 03:10:14;;;;;;;;;;;7.70;99.90;;;;;;5033984;28;19928;-74
2023/01/08 03:12:43;;;;;;;;;;;7.60;99.90;;;;;;5008955;28;19921;-74
2023/01/08 03:15:12;;;;;;;;;;;7.70;99.90;;;;;;5008356;28;19944;-74
2023/01/08 03:17:40;;;;;;;;;;;7.70;99.90;;;;;;5005113;28;20016;-74
2023/01/08 03:20:11;;;;;;;;;;;7.70;99.90;;;;;;5040173;28;19983;-74
2023/01/08 03:22:38;;;;;;;;;;;7.70;99.90;;;;;;5034183;28;20291;-74
2023/01/08 03:25:04;;;;;;;;;;;7.80;99.90;;;;;;5007686;28;19921;-74
2023/01/08 03:27:32;;;;;;;;;;;7.80;99.90;;;;;;5021225;28;19964;-74
2023/01/08 03:29:58;;;;;;;;;;;7.90;99.90;;;;;;5025255;28;19927;-74
2023/01/08 03:32:25;;;;;;;;;;;7.90;99.90;;;;;;5023745;28;20401;-74
2023/01/08 03:34:52;;;;;;;;;;;8.00;99.90;;;;;;5026002;28;19999;-74
2023/01/08 03:37:20;;;;;;;;;;;8.00;99.90;;;;;;5022851;28;19933;-74
2023/01/08 03:39:56;;;;;;;;;;;8.10;99.90;;;;;;5023277;28;20008;-74
2023/01/08 03:42:22;;;;;;;;;;;8.20;99.90;;;;;;5021630;28;19925;-74
2023/01/08 03:44:47;;;;;;;;;;;8.30;99.90;;;;;;5033075;28;19969;-74
2023/01/08 03:47:18;;;;;;;;;;;8.30;99.90;;;;;;5021881;28;19933;-74
2023/01/08 03:49:44;;;;;;;;;;;8.30;99.90;;;;;;5025380;28;19933;-74
2023/01/08 03:52:20;;;;;;;;;;;8.30;99.90;;;;;;5006464;28;19929;-75
2023/01/08 03:54:51;;;;;;;;;;;8.40;99.90;;;;;;5034070;28;20389;-76
2023/01/08 03:57:19;;;;;;;;;;;8.40;99.90;;;;;;5023572;28;20201;-76
2023/01/08 03:59:45;;;;;;;;;;;8.40;99.90;;;;;;5006615;28;20350;-75
2023/01/08 04:02:11;;;;;;;;;;;8.40;99.90;;;;;;5021724;28;19932;-76
2023/01/08 04:04:37;;;;;;;;;;;8.40;99.90;;;;;;5021513;28;19929;-76
2023/01/08 04:07:02;;;;;;;;;;;8.40;99.90;;;;;;5024646;28;19936;-76
2023/01/08 04:09:31;;;;;;;;;;;8.40;99.90;;;;;;5019246;28;20406;-76
2023/01/08 04:12:00;;;;;;;;;;;8.40;99.90;;;;;;5006552;28;19932;-76
2023/01/08 04:14:25;;;;;;;;;;;8.30;99.90;;;;;;5006678;28;19921;-76
2023/01/08 04:16:51;;;;;;;;;;;8.40;99.90;;;;;;5038218;28;19995;-76
2023/01/08 04:19:18;;;;;;;;;;;8.40;99.90;;;;;;5007362;28;20015;-77
2023/01/08 04:21:50;;;;;;;;;;;8.40;99.90;;;;;;5006447;28;20373;-78
2023/01/08 04:24:16;;;;;;;;;;;8.40;99.90;;;;;;5008437;28;20008;-78
2023/01/08 04:26:44;;;;;;;;;;;8.40;99.90;;;;;;4990050;28;20435;-77
2023/01/08 04:29:13;;;;;;;;;;;8.30;99.90;;;;;;5008847;28;20255;-77
2023/01/08 04:31:41;;;;;;;;;;;8.30;99.90;;;;;;5020129;28;19928;-76
2023/01/08 04:34:08;;;;;;;;;;;8.20;99.90;;;;;;5035354;28;19926;-76
2023/01/08 04:36:36;;;;;;;;;;;8.20;99.90;;;;;;5039943;28;19925;-75
2023/01/08 04:39:03;;;;;;;;;;;8.10;99.90;;;;;;5019962;28;19968;-75
2023/01/08 04:41:28;;;;;;;;;;;8.10;99.90;;;;;;5035148;28;20003;-76
2023/01/08 04:43:54;;;;;;;;;;;8.10;99.90;;;;;;5040129;28;20730;-76
2023/01/08 04:46:22;;;;;;;;;;;8.00;99.90;;;;;;5018768;28;19932;-77
2023/01/08 04:48:54;;;;;;;;;;;8.00;99.90;;;;;;5023658;28;19963;-78
2023/01/08 04:51:26;;;;;;;;;;;8.00;99.90;;;;;;4991544;28;19961;-78
2023/01/08 04:53:52;;;;;;;;;;;7.90;99.90;;;;;;5034559;28;19929;-77
2023/01/08 04:56:18;;;;;;;;;;;7.90;99.90;;;;;;5020883;28;19921;-78
2023/01/08 04:58:51;;;;;;;;;;;7.90;99.90;;;;;;5030945;28;19944;-78
2023/01/08 05:01:26;;;;;;;;;;;7.80;99.90;;;;;;5030416;28;19929;-77
2023/01/08 05:04:00;;;;;;;;;;;7.80;99.90;;;;;;5058902;28;19944;-76
2023/01/08 05:06:27;;;;;;;;;;;7.80;99.90;;;;;;5035030;28;19960;-76
2023/01/08 05:08:52;;;;;;;;;;;7.80;99.90;;;;;;5023910;28;19928;-76
2023/01/08 05:11:20;;;;;;;;;;;7.80;99.90;;;;;;5021780;28;19921;-76
2023/01/08 05:13:52;;;;;;;;;;;7.80;99.90;;;;;;5022876;28;19947;-75
2023/01/08 05:16:19;;;;;;;;;;;7.80;99.90;;;;;;5032562;28;19941;-76
2023/01/08 05:18:44;;;;;;;;;;;7.80;99.90;;;;;;5006278;28;20391;-76
2023/01/08 05:21:10;;;;;;;;;;;7.80;99.90;;;;;;5006831;28;20214;-76
2023/01/08 05:23:39;;;;;;;;;;;7.80;99.90;;;;;;5021765;28;19929;-75
2023/01/08 05:26:05;;;;;;;;;;;7.80;99.90;;;;;;5022170;28;19921;-75
2023/01/08 05:28:31;;;;;;;;;;;7.80;99.90;;;;;;5020179;28;20360;-75
2023/01/08 05:30:57;;;;;;;;;;;7.80;99.90;;;;;;5008574;28;20252;-75
2023/01/08 05:33:23;;;;;;;;;;;7.80;99.90;;;;;;5021953;28;19935;-75
2023/01/08 05:35:49;;;;;;;;;;;7.80;99.90;;;;;;5023756;28;19921;-75
2023/01/08 05:38:14;;;;;;;;;;;7.80;99.90;;;;;;5038136;28;19932;-74
2023/01/08 05:40:42;;;;;;;;;;;7.80;99.90;;;;;;5020731;28;19931;-75
2023/01/08 05:43:11;;;;;;;;;;;7.70;99.90;;;;;;5033425;28;20418;-74
2023/01/08 05:45:36;;;;;;;;;;;7.70;99.90;;;;;;5033950;28;20390;-74
2023/01/08 05:48:06;;;;;;;;;;;7.60;99.90;;;;;;5033580;28;19953;-74
2023/01/08 05:50:32;;;;;;;;;;;7.60;99.90;;;;;;5023188;28;19948;-74
2023/01/08 05:53:00;;;;;;;;;;;7.60;99.90;;;;;;4989444;28;20898;-74
2023/01/08 05:55:26;;;;;;;;;;;7.50;99.90;;;;;;5008683;28;19968;-74
2023/01/08 05:57:54;;;;;;;;;;;7.50;99.90;;;;;;5025482;28;19964;-74
2023/01/08 06:00:20;;;;;;;;;;;7.50;99.90;;;;;;5010209;28;19921;-74
2023/01/08 06:02:46;;;;;;;;;;;7.50;99.90;;;;;;5007571;28;20465;-73
2023/01/08 06:05:12;;;;;;;;;;;7.50;99.90;;;;;;5034673;28;20362;-73
2023/01/08 06:07:37;;;;;;;;;;;7.40;99.90;;;;;;4993796;28;19968;-74
2023/01/08 06:10:03;;;;;;;;;;;7.40;99.90;;;;;;5019435;28;19921;-73
2023/01/08 06:12:29;;;;;;;;;;;7.40;99.90;;;;;;5009407;28;19925;-73
2023/01/08 06:14:55;;;;;;;;;;;7.40;99.90;;;;;;5036042;28;19932;-74
2023/01/08 06:17:20;;;;;;;;;;;7.40;99.90;;;;;;5027246;28;19968;-73
2023/01/08 06:19:47;;;;;;;;;;;7.40;99.90;;;;;;5026014;28;19952;-74
2023/01/08 06:22:13;;;;;;;;;;;7.30;99.90;;;;;;5026226;28;19929;-73
2023/01/08 06:24:38;;;;;;;;;;;7.30;99.90;;;;;;5038531;28;19948;-73
2023/01/08 06:27:04;;;;;;;;;;;7.30;99.90;;;;;;5025330;28;20012;-73
2023/01/08 06:29:30;;;;;;;;;;;7.30;99.90;;;;;;5023134;28;19921;-73
2023/01/08 06:31:55;;;;;;;;;;;7.30;99.90;;;;;;5026494;28;19927;-73
2023/01/08 06:34:21;;;;;;;;;;;7.30;99.90;;;;;;5006545;28;19925;-73
2023/01/08 06:36:46;;;;;;;;;;;7.30;99.90;;;;;;5024764;28;19936;-73
2023/01/08 06:39:12;;;;;;;;;;;7.30;99.90;;;;;;5008494;28;19929;-73
2023/01/08 06:41:38;;;;;;;;;;;7.30;99.90;;;;;;4992970;28;19925;-73
2023/01/08 06:44:04;;;;;;;;;;;7.30;99.90;;;;;;5005192;28;20015;-73
2023/01/08 06:46:30;;;;;;;;;;;7.30;99.90;;;;;;4994523;28;19925;-73
2023/01/08 06:48:56;;;;;;;;;;;7.30;99.90;;;;;;5021634;28;20367;-73
2023/01/08 06:51:21;;;;;;;;;;;7.30;99.90;;;;;;5009582;28;19929;-73
2023/01/08 06:53:48;;;;;;;;;;;7.30;99.90;;;;;;5021524;28;19929;-73
2023/01/08 06:56:13;;;;;;;;;;;7.30;99.90;;;;;;5009086;28;20409;-73
2023/01/08 06:58:39;;;;;;;;;;;7.30;99.90;;;;;;5008272;28;19921;-73
2023/01/08 07:01:05;;;;;;;;;;;7.30;99.90;;;;;;5008256;28;19925;-73
2023/01/08 07:03:31;;;;;;;;;;;7.30;99.90;;;;;;5008860;28;20111;-73
2023/01/08 07:05:56;;;;;;;;;;;7.30;99.90;;;;;;5022081;28;19975;-73
2023/01/08 07:08:22;;;;;;;;;;;7.30;99.90;;;;;;5022272;28;19928;-73
2023/01/08 07:10:48;;;;;;;;;;;7.30;99.90;;;;;;5022851;28;19929;-73
2023/01/08 07:13:13;;;;;;;;;;;7.30;99.90;;;;;;5035840;28;19983;-73
2023/01/08 07:15:40;;;;;;;;;;;7.30;99.90;;;;;;5007718;28;20370;-73
2023/01/08 07:18:06;;;;;;;;;;;7.30;99.90;;;;;;5023363;28;19921;-73
2023/01/08 07:20:32;;;;;;;;;;;7.40;99.90;;;;;;5036089;28;20357;-73
2023/01/08 07:23:04;;;;;;;;;;;7.30;99.90;;;;;;5025007;28;20286;-73
2023/01/08 07:25:30;;;;;;;;;;;7.40;99.90;;;;;;5032543;28;20379;-73
2023/01/08 07:27:56;;;;;;;;;;;7.40;99.90;;;;;;5034844;28;19928;-73
2023/01/08 07:30:22;;;;;;;;;;;7.40;99.90;;;;;;5008766;28;19921;-73
2023/01/08 07:32:48;;;;;;;;;;;7.40;99.90;;;;;;5007817;28;19965;-73
2023/01/08 07:35:13;;;;;;;;;;;7.40;99.90;;;;;;5006751;28;20421;-73
2023/01/08 07:37:39;;;;;;;;;;;7.30;99.90;;;;;;5004429;28;19944;-73
2023/01/08 07:40:06;;;;;;;;;;;7.40;99.90;;;;;;5034252;28;20370;-73
2023/01/08 07:42:31;;;;;;;;;;;7.30;99.90;;;;;;5021874;28;19948;-73
2023/01/08 07:44:57;;;;;;;;;;;7.30;99.90;;;;;;5022743;28;19930;-73
2023/01/08 07:47:22;;;;;;;;;;;7.30;99.90;;;;;;5007323;28;19921;-73
2023/01/08 07:49:48;;;;;;;;;;;7.30;99.90;;;;;;4990773;28;19921;-73
2023/01/08 07:52:14;;;;;;;;;;;7.30;99.90;;;;;;5023950;28;19929;-73
2023/01/08 07:54:39;;;;;;;;;;;7.30;99.90;;;;;;5036185;28;20386;-73
2023/01/08 07:57:05;;;;;;;;;;;7.30;99.90;;;;;;5037876;28;19967;-73
2023/01/08 07:59:31;;;;;;;;;;;7.40;99.90;;;;;;5007068;28;21681;-73
2023/01/08 08:01:57;;;;;;;;;;;7.40;99.90;;;;;;5022066;28;19933;-73
2023/01/08 08:04:23;;;;;;;;;;;6.70;99.90;;;;;;5024778;28;19925;-73
2023/01/08 08:06:49;;;;;;;;;;;7.30;99.90;;;;;;5005747;28;19921;-73
2023/01/08 08:09:14;;;;;;;;;;;7.30;99.90;;;;;;5036147;28;19948;-73
2023/01/08 08:11:40;;;;;;;;;;;7.30;99.90;;;;;;5021442;28;19922;-73
2023/01/08 08:14:06;;;;;;;;;;;7.20;99.90;;;;;;5006456;28;20311;-73
2023/01/08 08:16:32;;;;;;;;;;;7.20;99.90;;;;;;5037259;28;20008;-73
2023/01/08 08:18:58;;;;;;;;;;;7.20;99.90;;;;;;5034944;28;19925;-73
2023/01/08 08:21:24;;;;;;;;;;;7.10;99.90;;;;;;5034445;28;20351;-72
2023/01/08 08:23:49;;;;;;;;;;;7.10;99.90;;;;;;4992443;28;19968;-73
2023/01/08 08:26:15;;;;;;;;;;;7.10;99.90;;;;;;5024533;28;19964;-71
2023/01/08 08:28:41;;;;;;;;;;;7.00;99.90;;;;;;5016160;28;20386;-73
2023/01/08 08:31:06;;;;;;;;;;;6.90;99.90;;;;;;5036108;28;19932;-73
2023/01/08 08:33:35;;;;;;;;;;;6.90;99.90;;;;;;5007473;28;21448;-73
2023/01/08 08:36:00;;;;;;;;;;;6.90;99.90;;;;;;5022996;28;20541;-72
2023/01/08 08:38:26;;;;;;;;;;;6.90;99.90;;;;;;5004514;28;19951;-73
2023/01/08 08:40:52;;;;;;;;;;;6.90;99.90;;;;;;5033152;28;20302;-73
2023/01/08 08:43:17;;;;;;;;;;;6.90;99.90;;;;;;5017495;28;19971;-72
2023/01/08 08:45:43;;;;;;;;;;;6.90;99.90;;;;;;5005963;28;19921;-73
2023/01/08 08:48:10;;;;;;;;;;;7.00;99.90;;;;;;5022491;28;20398;-73
2023/01/08 08:50:36;;;;;;;;;;;7.00;99.90;;;;;;5036063;28;20337;-73
2023/01/08 08:53:03;;;;;;;;;;;7.10;99.90;;;;;;5017256;28;21740;-73
2023/01/08 08:55:29;;;;;;;;;;;7.10;99.90;;;;;;5003157;28;19936;-74
2023/01/08 08:58:01;;;;;;;;;;;7.20;99.90;;;;;;5004481;28;19921;-74
2023/01/08 09:00:29;;;;;;;;;;;7.10;99.90;;;;;;5023686;28;19921;-73
2023/01/08 09:02:55;;;;;;;;;;;7.20;99.90;;;;;;5018484;28;19921;-73
2023/01/08 09:05:20;;;;;;;;;;;7.20;99.90;;;;;;5023524;28;19932;-73
2023/01/08 09:07:46;;;;;;;;;;;7.20;99.90;;;;;;5037347;28;19925;-74
2023/01/08 09:10:12;;;;;;;;;;;7.50;99.90;;;;;;5016395;28;19965;-73
2023/01/08 09:12:37;;;;;;;;;;;8.10;99.90;;;;;;5034336;28;19921;-74
2023/01/08 09:15:04;;;;;;;;;;;8.70;99.90;;;;;;5010489;28;19921;-74
2023/01/08 09:17:29;;;;;;;;;;;9.30;99.90;;;;;;5005126;28;20146;-74
2023/01/08 09:19:55;;;;;;;;;;;9.80;99.90;;;;;;5009765;28;19972;-74
2023/01/08 09:22:24;;;;;;;;;;;10.10;99.90;;;;;;5017290;28;19983;-74
2023/01/08 09:24:49;;;;;;;;;;;10.30;99.90;;;;;;5011142;28;19968;-74
2023/01/08 09:27:16;;;;;;;;;;;10.50;99.90;;;;;;5006070;28;19976;-74
2023/01/08 09:29:42;;;;;;;;;;;10.40;99.90;;;;;;5031047;28;20421;-74
2023/01/08 09:32:07;;;;;;;;;;;10.40;99.90;;;;;;5014526;28;20110;-74
2023/01/08 09:34:35;;;;;;;;;;;10.20;99.90;;;;;;5014553;28;19921;-74
2023/01/08 09:37:01;;;;;;;;;;;10.10;99.90;;;;;;5029933;28;19933;-74
2023/01/08 09:39:26;;;;;;;;;;;9.80;99.90;;;;;;5028011;28;19929;-74
2023/01/08 09:41:52;;;;;;;;;;;9.70;99.90;;;;;;5028662;28;19926;-74
2023/01/08 09:44:21;;;;;;;;;;;9.80;99.90;;;;;;5029660;28;19921;-74
2023/01/08 09:46:47;;;;;;;;;;;9.90;99.90;;;;;;5040988;28;19932;-74
2023/01/08 09:49:20;;;;;;;;;;;9.90;99.90;;;;;;5028574;28;20525;-74
2023/01/08 09:51:45;;;;;;;;;;;9.60;99.90;;;;;;5038035;28;20036;-73
2023/01/08 09:54:15;;;;;;;;;;;9.50;99.90;;;;;;5046906;28;19948;-74
2023/01/08 09:56:41;;;;;;;;;;;9.40;99.90;;;;;;5017340;28;20268;-73
2023/01/08 09:59:09;;;;;;;;;;;9.10;99.90;;;;;;5013995;28;19928;-74
2023/01/08 10:01:36;;;;;;;;;;;9.00;99.90;;;;;;5018860;28;19965;-73
2023/01/08 10:04:02;;;;;;;;;;;8.90;99.90;;;;;;5041389;28;20408;-73
2023/01/08 10:06:29;;;;;;;;;;;9.10;99.90;;;;;;5036547;28;20183;-73
2023/01/08 10:08:55;;;;;;;;;;;9.40;99.90;;;;;;5026363;28;19951;-73
2023/01/08 10:11:21;;;;;;;;;;;9.20;99.90;;;;;;5010141;28;20375;-74
2023/01/08 10:13:48;;;;;;;;;;;8.80;99.90;;;;;;5005255;28;19924;-73
2023/01/08 10:16:24;;;;;;;;;;;8.90;99.90;;;;;;5012219;28;19929;-74
2023/01/08 10:18:49;;;;;;;;;;;9.10;99.90;;;;;;5022868;28;20264;-74
2023/01/08 10:21:16;;;;;;;;;;;9.10;99.90;;;;;;5013269;28;19956;-74
2023/01/08 10:23:52;;;;;;;;;;;8.90;99.90;;;;;;5029661;28;20401;-74
2023/01/08 10:26:44;;;;;;;;;;;8.80;99.90;;;;;;5029417;28;20318;-74
2023/01/08 10:29:12;;;;;;;;;;;8.90;99.90;;;;;;5001653;28;20032;-74
2023/01/08 10:31:46;;;;;;;;;;;8.70;99.90;;;;;;5029799;28;19929;-74
2023/01/08 10:34:19;;;;;;;;;;;8.90;99.90;;;;;;5028583;28;20345;-74
2023/01/08 10:36:45;;;;;;;;;;;9.10;99.90;;;;;;5028111;28;19921;-74
2023/01/08 10:39:24;;;;;;;;;;;9.20;99.90;;;;;;5023524;28;19922;-73
2023/01/08 10:41:52;;;;;;;;;;;8.90;99.90;;;;;;5023755;28;19925;-73
2023/01/08 10:44:18;;;;;;;;;;;8.80;99.90;;;;;;5007081;28;19963;-74
2023/01/08 10:46:49;;;;;;;;;;;8.70;99.90;;;;;;5013740;28;20472;-74
2023/01/08 10:49:41;;;;;;;;;;;8.60;99.90;;;;;;5023191;28;20409;-74
2023/01/08 10:52:35;;;;;;;;;;;8.50;99.90;;;;;;5022887;28;19936;-74
2023/01/08 10:55:37;;;;;;;;;;;8.40;99.90;;;;;;5024149;28;19971;-74
2023/01/08 10:58:12;;;;;;;;;;;8.40;99.90;;;;;;4999423;28;19968;-74
2023/01/08 11:00:38;;;;;;;;;;;8.40;99.90;;;;;;5027313;28;19986;-74
2023/01/08 11:03:08;;;;;;;;;;;8.40;99.90;;;;;;5025628;28;20332;-74
2023/01/08 11:05:36;;;;;;;;;;;8.60;99.90;;;;;;5034547;28;19929;-73
2023/01/08 11:08:04;;;;;;;;;;;8.50;99.90;;;;;;5019010;28;20379;-74
2023/01/08 11:10:31;;;;;;;;;;;8.40;99.90;;;;;;5021753;28;19925;-74
2023/01/08 11:13:03;;;;;;;;;;;8.40;99.90;;;;;;5037804;28;19925;-74
2023/01/08 11:15:28;;;;;;;;;;;8.40;99.90;;;;;;5017934;28;20016;-74
2023/01/08 11:18:02;;;;;;;;;;;8.40;99.90;;;;;;5012939;28;20047;-74
2023/01/08 11:20:29;;;;;;;;;;;8.40;99.90;;;;;;5036190;28;19921;-74
2023/01/08 11:23:13;;;;;;;;;;;8.40;99.90;;;;;;5027276;28;19932;-74
2023/01/08 11:25:41;;;;;;;;;;;8.30;99.90;;;;;;5037997;28;19932;-74
2023/01/08 11:28:10;;;;;;;;;;;8.40;99.90;;;;;;5004062;28;19932;-74
2023/01/08 11:30:37;;;;;;;;;;;8.40;99.90;;;;;;5024461;28;19975;-73
2023/01/08 11:33:03;;;;;;;;;;;8.40;99.90;;;;;;5038050;28;20098;-73
2023/01/08 11:35:48;;;;;;;;;;;8.40;99.90;;;;;;5037580;28;20284;-74
2023/01/08 11:38:14;;;;;;;;;;;8.30;99.90;;;;;;5021785;28;21191;-74
2023/01/08 11:40:40;;;;;;;;;;;8.40;99.90;;;;;;5007630;28;20006;-74
2023/01/08 11:43:11;;;;;;;;;;;8.40;99.90;;;;;;5008197;28;19929;-74
2023/01/08 11:45:44;;;;;;;;;;;8.30;99.90;;;;;;5023409;28;20721;-74
2023/01/08 11:48:19;;;;;;;;;;;8.30;99.90;;;;;;5017957;28;20019;-74
2023/01/08 11:50:48;;;;;;;;;;;8.30;99.90;;;;;;5027451;28;19921;-74
2023/01/08 11:53:26;;;;;;;;;;;8.40;99.90;;;;;;5031084;28;19925;-74
2023/01/08 11:55:57;;;;;;;;;;;8.30;99.90;;;;;;5018873;28;19970;-74
2023/01/08 11:58:32;;;;;;;;;;;8.40;99.90;;;;;;5005164;28;19960;-74
2023/01/08 12:01:03;;;;;;;;;;;8.40;99.90;;;;;;5019812;28;19929;-75
2023/01/08 12:03:48;;;;;;;;;;;8.40;99.90;;;;;;5017225;28;19929;-74
2023/01/08 12:06:19;;;;;;;;;;;8.50;99.90;;;;;;5020252;28;19932;-74
2023/01/08 12:08:51;;;;;;;;;;;8.50;99.90;;;;;;5039835;28;19925;-74
2023/01/08 12:11:20;;;;;;;;;;;8.50;99.90;;;;;;5018918;28;19929;-74
2023/01/08 12:14:04;;;;;;;;;;;8.50;99.90;;;;;;5020733;28;19965;-74
2023/01/08 12:16:38;;;;;;;;;;;8.60;99.90;;;;;;5034859;28;19936;-74
2023/01/08 12:19:10;;;;;;;;;;;8.50;99.90;;;;;;5039212;28;20012;-74
2023/01/08 12:21:45;;;;;;;;;;;8.60;99.90;;;;;;5036307;28;19964;-74
2023/01/08 12:24:16;;;;;;;;;;;8.60;99.90;;;;;;5023593;28;19928;-74
2023/01/08 12:26:50;;;;;;;;;;;8.80;99.90;;;;;;5004243;28;20056;-74
2023/01/08 12:29:27;;;;;;;;;;;8.80;99.90;;;;;;5022375;28;20004;-74
2023/01/08 12:32:11;;;;;;;;;;;8.80;99.90;;;;;;5023565;28;20409;-74
2023/01/08 12:34:59;;;;;;;;;;;8.80;99.90;;;;;;5020135;28;19925;-73
2023/01/08 12:37:37;;;;;;;;;;;8.70;99.90;;;;;;5012121;28;19967;-74
2023/01/08 12:40:06;;;;;;;;;;;8.80;99.90;;;;;;5020349;28;19976;-74
2023/01/08 12:42:33;;;;;;;;;;;8.80;99.90;;;;;;5035025;28;19933;-74
2023/01/08 12:45:00;;;;;;;;;;;8.80;99.90;;;;;;5024667;28;19921;-74
2023/01/08 12:47:28;;;;;;;;;;;8.80;99.90;;;;;;5008045;28;20330;-75
2023/01/08 12:50:03;;;;;;;;;;;8.90;99.90;;;;;;5003091;28;19929;-74
2023/01/08 12:52:35;;;;;;;;;;;9.10;99.90;;;;;;5036850;28;19980;-74
2023/01/08 12:55:04;;;;;;;;;;;9.20;99.90;;;;;;5037852;28;19978;-74
2023/01/08 12:57:32;;;;;;;;;;;9.30;99.90;;;;;;5019235;28;19921;-74
2023/01/08 13:00:04;;;;;;;;;;;9.30;99.90;;;;;;5036639;28;19973;-74
2023/01/08 13:02:39;;;;;;;;;;;9.40;99.90;;;;;;5040729;28;19929;-74
2023/01/08 13:05:13;;;;;;;;;;;9.40;99.90;;;;;;5029516;28;20359;-74
2023/01/08 13:07:45;;;;;;;;;;;9.30;99.90;;;;;;5038425;28;19921;-74
2023/01/08 13:10:29;;;;;;;;;;;9.20;99.90;;;;;;5033707;28;19921;-75
2023/01/08 13:13:00;;;;;;;;;;;9.20;99.90;;;;;;5028987;28;20326;-74
2023/01/08 13:15:27;;;;;;;;;;;9.30;99.90;;;;;;5009723;28;20412;-75
2023/01/08 13:17:54;;;;;;;;;;;9.30;99.90;;;;;;5030813;28;19929;-75
2023/01/08 13:20:21;;;;;;;;;;;9.40;99.90;;;;;;5039115;28;19971;-74
2023/01/08 13:22:51;;;;;;;;;;;9.30;99.90;;;;;;5032139;28;20027;-74
2023/01/08 13:25:20;;;;;;;;;;;9.30;99.90;;;;;;5026949;28;19929;-75
2023/01/08 13:27:51;;;;;;;;;;;9.40;99.90;;;;;;5036808;28;19976;-74
2023/01/08 13:30:35;;;;;;;;;;;9.40;99.90;;;;;;5032460;28;20125;-75
2023/01/08 13:33:04;;;;;;;;;;;9.40;99.90;;;;;;5021079;28;19921;-74
2023/01/08 13:35:30;;;;;;;;;;;9.30;99.90;;;;;;5003644;28;20359;-74
2023/01/08 13:38:08;;;;;;;;;;;9.30;99.90;;;;;;4997293;28;20016;-74
2023/01/08 13:40:43;;;;;;;;;;;9.30;99.90;;;;;;5023846;28;19921;-75
2023/01/08 13:43:14;;;;;;;;;;;9.20;99.90;;;;;;5032561;28;19936;-74
2023/01/08 13:45:40;;;;;;;;;;;9.10;99.90;;;;;;5027901;28;19975;-75
2023/01/08 13:48:21;;;;;;;;;;;9.00;99.90;;;;;;5027217;28;19925;-74
2023/01/08 13:50:50;;;;;;;;;;;9.00;99.90;;;;;;5029048;28;19983;-74
2023/01/08 13:53:16;;;;;;;;;;;8.90;99.90;;;;;;5039268;28;19972;-74
2023/01/08 13:55:47;;;;;;;;;;;8.90;99.90;;;;;;5006792;28;20334;-75
2023/01/08 13:58:18;;;;;;;;;;;8.90;99.90;;;;;;5008481;28;20383;-75
2023/01/08 14:00:49;;;;;;;;;;;8.80;99.90;;;;;;5045384;28;19928;-75
2023/01/08 14:03:26;;;;;;;;;;;8.80;99.90;;;;;;5028232;28;20338;-74
2023/01/08 14:05:52;;;;;;;;;;;8.80;99.90;;;;;;5024432;28;20034;-74
2023/01/08 14:08:24;;;;;;;;;;;8.70;99.90;;;;;;5027184;28;20393;-75
2023/01/08 14:10:51;;;;;;;;;;;8.70;99.90;;;;;;5028303;28;20011;-74
2023/01/08 14:13:20;;;;;;;;;;;8.60;99.90;;;;;;5024970;28;19928;-75
2023/01/08 14:15:46;;;;;;;;;;;8.60;99.90;;;;;;5024319;28;20339;-74
2023/01/08 14:18:12;;;;;;;;;;;8.50;99.90;;;;;;5008941;28;20363;-74
2023/01/08 14:20:42;;;;;;;;;;;8.50;99.90;;;;;;5009302;28;19936;-74
2023/01/08 14:23:18;;;;;;;;;;;8.50;99.90;;;;;;5006737;28;19952;-74
2023/01/08 14:25:46;;;;;;;;;;;8.50;99.90;;;;;;5039667;28;19925;-72
2023/01/08 14:28:15;;;;;;;;;;;8.50;99.90;;;;;;5023600;28;19976;-73
2023/01/08 14:30:46;;;;;;;;;;;8.50;99.90;;;;;;5020879;28;20390;-73
2023/01/08 14:33:14;;;;;;;;;;;8.50;99.90;;;;;;5022482;28;19984;-73
2023/01/08 14:35:41;;;;;;;;;;;8.40;99.90;;;;;;5006168;28;19929;-73
2023/01/08 14:38:10;;;;;;;;;;;8.40;99.90;;;;;;5037879;28;19925;-73